createdAt,value
2022-08-14T00:01:50.289Z,53.80
2022-08-14T00:04:34.742Z,53.60
2022-08-14T00:07:06.930Z,53.50
2022-08-14T00:09:56.373Z,53.60
2022-08-14T00:12:24.472Z,53.50
2022-08-14T00:14:54.846Z,53.90
2022-08-14T00:17:22.631Z,53.90
2022-08-14T00:19:49.839Z,53.90
2022-08-14T00:22:44.026Z,53.80
2022-08-14T00:25:07.326Z,54.00
2022-08-14T00:27:37.755Z,54.10
2022-08-14T00:30:10.761Z,54.10
2022-08-14T00:33:01.689Z,54.30
2022-08-14T00:36:33.894Z,54.30
2022-08-14T00:38:11.581Z,53.90
2022-08-14T00:40:39.398Z,54.00
2022-08-14T00:43:13.473Z,54.10
2022-08-14T00:45:42.226Z,54.50
2022-08-14T00:48:10.446Z,54.40
2022-08-14T00:50:37.375Z,54.40
2022-08-14T00:53:04.279Z,54.30
2022-08-14T00:55:31.180Z,54.50
2022-08-14T00:58:17.971Z,54.60
2022-08-14T01:00:51.038Z,54.60
2022-08-14T01:03:19.260Z,54.70
2022-08-14T01:05:51.534Z,54.70
2022-08-14T01:08:52.422Z,54.40
2022-08-14T01:11:07.830Z,54.50
2022-08-14T01:13:42.488Z,54.60
2022-08-14T01:16:14.794Z,54.90
2022-08-14T01:19:02.188Z,54.80
2022-08-14T01:21:46.885Z,54.90
2022-08-14T01:24:22.975Z,54.80
2022-08-14T01:26:55.783Z,55.40
2022-08-14T01:29:46.410Z,56.10
2022-08-14T01:32:10.528Z,56.40
2022-08-14T01:35:19.347Z,56.70
2022-08-14T01:37:25.536Z,56.80
2022-08-14T01:39:54.450Z,57.00
2022-08-14T01:42:31.058Z,57.00
2022-08-14T01:44:59.076Z,56.50
2022-08-14T01:47:26.950Z,56.50
2022-08-14T01:50:01.547Z,56.40
2022-08-14T01:52:34.135Z,56.20
2022-08-14T01:55:19.424Z,56.30
2022-08-14T01:58:01.069Z,56.60
2022-08-14T02:00:36.387Z,56.60
2022-08-14T02:03:05.894Z,56.70
2022-08-14T02:05:38.550Z,56.60
2022-08-14T02:08:08.783Z,56.50
2022-08-14T02:10:46.569Z,56.50
2022-08-14T02:13:15.905Z,57.00
2022-08-14T02:15:43.946Z,56.20
2022-08-14T02:18:11.871Z,56.40
2022-08-14T02:20:42.103Z,56.10
2022-08-14T02:23:09.043Z,56.10
2022-08-14T02:25:36.674Z,56.00
2022-08-14T02:28:22.507Z,56.10
2022-08-14T02:30:52.356Z,56.10
2022-08-14T02:33:21.266Z,56.10
2022-08-14T02:35:53.265Z,56.20
2022-08-14T02:38:30.232Z,56.30
2022-08-14T02:41:01.035Z,56.20
2022-08-14T02:43:36.924Z,56.30
2022-08-14T02:46:12.733Z,56.50
2022-08-14T02:49:04.868Z,56.30
2022-08-14T02:51:30.435Z,56.30
2022-08-14T02:53:58.376Z,56.80
2022-08-14T02:56:30.882Z,56.10
2022-08-14T02:59:14.327Z,56.20
2022-08-14T03:01:43.583Z,56.30
2022-08-14T03:04:17.706Z,56.40
2022-08-14T03:06:58.042Z,56.40
2022-08-14T03:09:42.309Z,56.40
2022-08-14T03:12:30.842Z,56.60
2022-08-14T03:14:59.142Z,56.50
2022-08-14T03:17:31.897Z,56.60
2022-08-14T03:20:11.084Z,56.60
2022-08-14T03:22:42.468Z,56.60
2022-08-14T03:25:12.217Z,56.50
2022-08-14T03:27:47.764Z,56.40
2022-08-14T03:30:23.680Z,56.50
2022-08-14T03:32:50.485Z,56.60
2022-08-14T03:35:19.782Z,56.70
2022-08-14T03:39:13.026Z,56.70
2022-08-14T03:40:33.733Z,56.60
2022-08-14T03:43:00.667Z,56.70
2022-08-14T03:45:35.146Z,56.60
2022-08-14T03:48:04.738Z,56.60
2022-08-14T03:50:37.869Z,56.70
2022-08-14T03:53:04.824Z,56.90
2022-08-14T03:55:31.675Z,57.50
2022-08-14T03:58:00.656Z,56.70
2022-08-14T04:00:43.575Z,56.70
2022-08-14T04:03:14.253Z,56.80
2022-08-14T04:05:49.065Z,57.00
2022-08-14T04:08:29.243Z,57.00
2022-08-14T04:10:59.457Z,57.00
2022-08-14T04:13:31.955Z,57.00
2022-08-14T04:16:10.175Z,57.00
2022-08-14T04:18:44.789Z,57.00
2022-08-14T04:21:13.060Z,56.90
2022-08-14T04:23:42.785Z,57.00
2022-08-14T04:26:14.634Z,57.10
2022-08-14T04:29:07.327Z,57.00
2022-08-14T04:33:01.075Z,57.00
2022-08-14T04:34:20.695Z,57.10
2022-08-14T04:37:09.462Z,57.20
2022-08-14T04:39:56.979Z,57.50
2022-08-14T04:42:47.138Z,57.80
2022-08-14T04:45:20.049Z,58.80
2022-08-14T04:48:05.764Z,59.80
2022-08-14T04:50:44.305Z,61.00
2022-08-14T04:53:14.873Z,61.70
2022-08-14T04:55:49.967Z,62.50
2022-08-14T04:58:22.003Z,63.90
2022-08-14T05:00:59.392Z,64.50
2022-08-14T05:03:32.199Z,65.00
2022-08-14T05:06:00.452Z,65.90
2022-08-14T05:08:32.087Z,67.40
2022-08-14T05:11:15.154Z,68.70
2022-08-14T05:16:31.174Z,70.00
2022-08-14T05:19:17.602Z,70.50
2022-08-14T05:21:59.455Z,70.90
2022-08-14T05:24:29.123Z,71.50
2022-08-14T05:26:56.854Z,71.70
2022-08-14T05:29:26.236Z,71.80
2022-08-14T05:31:57.516Z,71.90
2022-08-14T05:34:31.835Z,71.30
2022-08-14T05:37:02.241Z,70.80
2022-08-14T05:39:30.982Z,73.00
2022-08-14T05:41:58.213Z,73.10
2022-08-14T05:44:29.695Z,71.90
2022-08-14T05:46:57.184Z,71.00
2022-08-14T05:49:25.974Z,70.40
2022-08-14T05:51:59.919Z,70.40
2022-08-14T05:54:33.370Z,69.60
2022-08-14T05:57:04.684Z,70.70
2022-08-14T05:59:39.160Z,70.10
2022-08-14T06:02:10.986Z,70.90
2022-08-14T06:04:39.071Z,70.40
2022-08-14T06:07:06.360Z,70.50
2022-08-14T06:09:35.673Z,70.10
2022-08-14T06:12:08.537Z,69.50
2022-08-14T06:14:36.630Z,69.40
2022-08-14T06:17:04.622Z,70.30
2022-08-14T06:19:32.088Z,69.90
2022-08-14T06:21:59.640Z,69.90
2022-08-14T06:24:27.394Z,70.00
2022-08-14T06:27:04.106Z,70.30
2022-08-14T06:29:34.932Z,70.30
2022-08-14T06:32:37.895Z,71.10
2022-08-14T06:35:03.966Z,70.90
2022-08-14T06:37:43.923Z,71.00
2022-08-14T06:40:25.489Z,70.70
2022-08-14T06:42:54.986Z,71.20
2022-08-14T06:45:21.991Z,73.20
2022-08-14T06:47:53.827Z,75.20
2022-08-14T06:50:28.083Z,76.20
2022-08-14T06:52:56.270Z,77.80
2022-08-14T06:55:27.681Z,77.80
2022-08-14T06:57:57.898Z,76.40
2022-08-14T07:00:30.523Z,74.20
2022-08-14T07:03:17.319Z,73.60
2022-08-14T07:05:55.275Z,72.10
2022-08-14T07:08:31.555Z,69.80
2022-08-14T07:11:00.632Z,68.00
2022-08-14T07:13:28.357Z,67.30
2022-08-14T07:15:56.267Z,67.70
2022-08-14T07:18:29.689Z,66.90
2022-08-14T07:20:57.937Z,67.30
2022-08-14T07:23:25.847Z,66.50
2022-08-14T07:25:56.830Z,66.30
2022-08-14T07:28:26.930Z,66.60
2022-08-14T07:31:04.559Z,67.30
2022-08-14T07:33:50.692Z,67.50
2022-08-14T07:36:26.550Z,67.70
2022-08-14T07:38:56.664Z,68.00
2022-08-14T07:41:23.719Z,68.60
2022-08-14T07:43:55.271Z,67.90
2022-08-14T07:46:28.573Z,68.00
2022-08-14T07:48:58.124Z,71.20
2022-08-14T07:51:26.087Z,73.00
2022-08-14T07:54:01.365Z,77.00
2022-08-14T07:56:48.112Z,76.50
2022-08-14T07:59:18.538Z,73.70
2022-08-14T08:01:51.445Z,71.90
2022-08-14T08:04:24.180Z,71.10
2022-08-14T08:06:51.707Z,70.40
2022-08-14T08:09:18.546Z,69.20
2022-08-14T08:11:45.728Z,68.90
2022-08-14T08:14:21.416Z,68.50
2022-08-14T08:16:51.172Z,70.70
2022-08-14T08:19:19.111Z,68.20
2022-08-14T08:21:47.033Z,71.70
2022-08-14T08:24:18.436Z,72.20
2022-08-14T08:26:46.858Z,72.20
2022-08-14T08:29:24.962Z,71.60
2022-08-14T08:31:56.648Z,70.10
2022-08-14T08:34:29.427Z,70.10
2022-08-14T08:36:58.318Z,71.60
2022-08-14T08:39:26.190Z,71.40
2022-08-14T08:41:57.487Z,71.70
2022-08-14T08:44:32.904Z,75.40
2022-08-14T08:47:05.306Z,78.10
2022-08-14T08:49:48.356Z,77.50
2022-08-14T08:52:24.980Z,77.80
2022-08-14T08:54:55.997Z,77.90
2022-08-14T08:57:24.078Z,77.50
2022-08-14T08:59:54.688Z,79.20
2022-08-14T09:02:22.679Z,81.00
2022-08-14T09:05:00.617Z,82.00
2022-08-14T09:07:27.476Z,82.60
2022-08-14T09:09:59.074Z,81.80
2022-08-14T09:12:29.825Z,80.10
2022-08-14T09:15:04.320Z,81.40
2022-08-14T09:17:38.633Z,82.20
2022-08-14T09:20:08.340Z,82.20
2022-08-14T09:22:47.654Z,83.20
2022-08-14T09:25:15.107Z,82.40
2022-08-14T09:27:42.062Z,81.20
2022-08-14T09:30:13.139Z,79.50
2022-08-14T09:33:11.114Z,80.00
2022-08-14T09:36:02.273Z,79.80
2022-08-14T09:39:07.560Z,79.50
2022-08-14T09:42:21.105Z,81.00
2022-08-14T09:45:14.174Z,82.00
2022-08-14T09:47:51.708Z,81.50
2022-08-14T09:50:29.980Z,82.10
2022-08-14T09:53:04.772Z,82.40
2022-08-14T09:55:42.648Z,82.40
2022-08-14T09:58:19.734Z,84.80
2022-08-14T10:00:49.119Z,84.30
2022-08-14T10:03:33.976Z,85.70
2022-08-14T10:06:04.819Z,84.10
2022-08-14T10:08:40.871Z,82.70
2022-08-14T10:11:19.516Z,80.60
2022-08-14T10:13:56.003Z,79.70
2022-08-14T10:16:33.423Z,81.50
2022-08-14T10:19:09.586Z,81.40
2022-08-14T10:21:58.829Z,80.50
2022-08-14T10:24:36.151Z,77.20
2022-08-14T10:27:04.479Z,76.40
2022-08-14T10:29:36.128Z,78.30
2022-08-14T10:32:03.741Z,74.60
2022-08-14T10:34:46.004Z,74.50
2022-08-14T10:37:14.248Z,73.40
2022-08-14T10:39:46.354Z,73.60
2022-08-14T10:42:39.510Z,70.40
2022-08-14T10:45:35.842Z,69.20
2022-08-14T10:48:34.616Z,70.00
2022-08-14T10:51:02.455Z,69.40
2022-08-14T10:53:33.388Z,69.40
2022-08-14T10:56:03.697Z,69.10
2022-08-14T10:58:32.821Z,69.20
2022-08-14T11:01:05.416Z,68.80
2022-08-14T11:03:55.866Z,68.90
2022-08-14T11:06:24.711Z,68.90
2022-08-14T11:08:52.909Z,68.90
2022-08-14T11:11:22.967Z,68.80
2022-08-14T11:13:50.717Z,68.80
2022-08-14T11:16:18.317Z,68.80
2022-08-14T11:18:50.793Z,68.80
2022-08-14T11:21:21.354Z,68.70
2022-08-14T11:23:49.386Z,68.60
2022-08-14T11:26:20.749Z,68.50
2022-08-14T11:28:49.723Z,68.50
2022-08-14T11:31:22.077Z,68.60
2022-08-14T11:33:51.294Z,68.50
2022-08-14T11:36:18.951Z,68.40
2022-08-14T11:38:46.585Z,68.40
2022-08-14T11:41:19.343Z,68.40
2022-08-14T11:43:57.715Z,67.10
2022-08-14T11:46:30.563Z,64.90
2022-08-14T11:49:05.783Z,64.00
2022-08-14T11:51:42.943Z,64.30
2022-08-14T11:54:20.527Z,63.40
2022-08-14T11:57:00.946Z,64.00
2022-08-14T11:59:32.613Z,64.50
2022-08-14T12:03:00.991Z,64.60
2022-08-14T12:05:04.028Z,64.10
2022-08-14T12:07:32.038Z,64.80
2022-08-14T12:09:59.469Z,65.10
2022-08-14T12:12:35.554Z,65.90
2022-08-14T12:15:06.902Z,65.40
2022-08-14T12:17:49.736Z,66.70
2022-08-14T12:20:30.301Z,66.70
2022-08-14T12:23:00.751Z,65.50
2022-08-14T12:25:27.592Z,65.90
2022-08-14T12:27:59.067Z,66.00
2022-08-14T12:30:34.363Z,65.80
2022-08-14T12:33:05.433Z,65.80
2022-08-14T12:35:42.890Z,65.70
2022-08-14T12:38:19.412Z,65.80
2022-08-14T12:40:52.367Z,65.60
2022-08-14T12:43:21.813Z,65.70
2022-08-14T12:45:55.048Z,65.60
2022-08-14T12:48:31.523Z,65.70
2022-08-14T12:50:58.716Z,65.60
2022-08-14T12:53:38.421Z,65.80
2022-08-14T12:56:22.673Z,65.80
2022-08-14T12:58:56.516Z,65.80
2022-08-14T13:01:27.794Z,65.80
2022-08-14T13:04:12.601Z,65.80
2022-08-14T13:06:44.756Z,65.70
2022-08-14T13:09:18.532Z,66.10
2022-08-14T13:11:46.029Z,65.50
2022-08-14T13:14:17.253Z,65.60
2022-08-14T13:16:45.205Z,65.60
2022-08-14T13:19:18.454Z,65.50
2022-08-14T13:22:04.885Z,65.60
2022-08-14T13:24:38.403Z,65.60
2022-08-14T13:27:09.786Z,65.70
2022-08-14T13:29:43.906Z,65.60
2022-08-14T13:32:14.574Z,65.60
2022-08-14T13:34:43.703Z,65.80
2022-08-14T13:37:14.276Z,65.80
2022-08-14T13:39:41.151Z,65.70
2022-08-14T13:42:13.516Z,65.70
2022-08-14T13:44:42.932Z,65.60
2022-08-14T13:47:15.338Z,65.70
2022-08-14T13:49:57.487Z,65.60
2022-08-14T13:52:52.766Z,65.70
2022-08-14T13:55:13.434Z,66.10
2022-08-14T13:57:49.938Z,66.10
2022-08-14T14:00:32.732Z,66.30
2022-08-14T14:03:02.822Z,66.60
2022-08-14T14:05:52.835Z,66.60
2022-08-14T14:08:18.878Z,66.60
2022-08-14T14:11:03.345Z,66.50
2022-08-14T14:13:31.837Z,66.40
2022-08-14T14:16:00.852Z,66.60
2022-08-14T14:18:34.326Z,66.60
2022-08-14T14:21:03.549Z,66.90
2022-08-14T14:23:32.486Z,67.10
2022-08-14T14:25:59.497Z,66.80
2022-08-14T14:28:31.616Z,67.50
2022-08-14T14:31:05.874Z,68.30
2022-08-14T14:33:50.101Z,70.00
2022-08-14T14:36:26.566Z,70.70
2022-08-14T14:38:56.913Z,73.70
2022-08-14T14:41:25.193Z,73.40
2022-08-14T14:43:52.680Z,76.50
2022-08-14T14:46:21.847Z,75.80
2022-08-14T14:49:05.353Z,75.20
2022-08-14T14:51:32.156Z,73.90
2022-08-14T14:53:59.068Z,74.60
2022-08-14T14:56:50.136Z,74.50
2022-08-14T14:59:13.271Z,75.10
2022-08-14T15:01:40.173Z,75.80
2022-08-14T15:04:20.292Z,75.30
2022-08-14T15:06:48.596Z,76.30
2022-08-14T15:09:18.091Z,76.40
2022-08-14T15:11:46.029Z,75.90
2022-08-14T15:14:55.357Z,78.40
2022-08-14T15:17:01.932Z,76.90
2022-08-14T15:19:28.947Z,77.80
2022-08-14T15:21:55.887Z,77.10
2022-08-14T15:24:26.547Z,77.90
2022-08-14T15:26:53.787Z,77.20
2022-08-14T15:29:20.813Z,76.60
2022-08-14T15:31:47.581Z,78.70
2022-08-14T15:34:44.258Z,86.30
2022-08-14T15:37:03.119Z,78.90
2022-08-14T15:39:33.824Z,79.00
2022-08-14T15:42:04.261Z,78.30
2022-08-14T15:44:46.630Z,78.30
2022-08-14T15:47:28.152Z,77.90
2022-08-14T15:49:59.027Z,79.90
2022-08-14T15:52:32.528Z,80.30
2022-08-14T15:55:03.522Z,80.60
2022-08-14T15:57:31.234Z,81.10
2022-08-14T16:00:40.052Z,81.10
2022-08-14T16:03:04.530Z,81.60
2022-08-14T16:05:38.562Z,81.20
2022-08-14T16:08:24.333Z,78.50
2022-08-14T16:10:55.886Z,76.50
2022-08-14T16:13:38.980Z,77.30
2022-08-14T16:16:47.771Z,77.70
2022-08-14T16:18:59.037Z,76.00
2022-08-14T16:21:31.742Z,76.70
2022-08-14T16:23:59.699Z,76.90
2022-08-14T16:26:29.362Z,77.20
2022-08-14T16:29:07.393Z,76.70
2022-08-14T16:31:37.459Z,77.70
2022-08-14T16:34:47.219Z,76.60
2022-08-14T16:36:53.453Z,76.20
2022-08-14T16:39:20.621Z,75.70
2022-08-14T16:41:51.169Z,75.70
2022-08-14T16:44:21.669Z,75.90
2022-08-14T16:46:58.897Z,75.60
2022-08-14T16:49:35.280Z,75.40
2022-08-14T16:52:26.211Z,75.10
2022-08-14T16:55:01.509Z,76.30
2022-08-14T16:57:28.479Z,74.90
2022-08-14T16:59:59.587Z,74.60
2022-08-14T17:02:40.430Z,75.00
2022-08-14T17:05:24.946Z,75.90
2022-08-14T17:08:03.853Z,73.80
2022-08-14T17:10:50.598Z,74.00
2022-08-14T17:13:19.128Z,73.60
2022-08-14T17:16:25.157Z,73.40
2022-08-14T17:19:00.917Z,73.30
2022-08-14T17:21:32.602Z,73.30
2022-08-14T17:24:57.934Z,73.00
2022-08-14T17:26:55.280Z,72.70
2022-08-14T17:29:31.075Z,72.60
2022-08-14T17:32:22.123Z,72.60
2022-08-14T17:34:57.789Z,72.70
2022-08-14T17:37:35.451Z,72.40
2022-08-14T17:40:15.018Z,72.30
2022-08-14T17:42:51.731Z,72.10
2022-08-14T17:45:41.221Z,72.30
2022-08-14T17:49:15.913Z,72.30
2022-08-14T17:51:23.864Z,73.30
2022-08-14T17:53:52.619Z,72.60
2022-08-14T17:56:20.618Z,72.60
2022-08-14T17:58:49.556Z,72.50
2022-08-14T18:01:16.775Z,72.50
2022-08-14T18:03:53.114Z,72.20
2022-08-14T18:06:38.369Z,66.80
2022-08-14T18:09:26.051Z,62.30
2022-08-14T18:11:54.856Z,64.30
2022-08-14T18:14:31.872Z,64.80
2022-08-14T18:17:00.342Z,65.40
2022-08-14T18:19:29.359Z,65.10
2022-08-14T18:21:58.067Z,65.40
2022-08-14T18:24:29.651Z,67.80
2022-08-14T18:27:23.246Z,69.50
2022-08-14T18:29:55.826Z,71.30
2022-08-14T18:32:32.240Z,72.00
2022-08-14T18:35:11.314Z,72.70
2022-08-14T18:37:40.809Z,70.80
2022-08-14T18:40:17.664Z,70.90
2022-08-14T18:42:49.219Z,71.90
2022-08-14T18:45:19.076Z,72.50
2022-08-14T18:48:50.195Z,72.20
2022-08-14T18:51:45.675Z,71.40
2022-08-14T18:54:27.046Z,73.50
2022-08-14T18:57:05.292Z,73.90
2022-08-14T18:59:40.254Z,74.30
2022-08-14T19:02:30.500Z,74.80
2022-08-14T19:04:59.196Z,76.30
2022-08-14T19:07:33.252Z,76.00
2022-08-14T19:10:16.889Z,76.30
2022-08-14T19:12:53.451Z,76.50
2022-08-14T19:15:25.828Z,76.70
2022-08-14T19:18:14.674Z,76.00
2022-08-14T19:20:54.196Z,73.80
2022-08-14T19:23:23.280Z,71.80
2022-08-14T19:26:35.495Z,70.40
2022-08-14T19:29:19.981Z,69.60
2022-08-14T19:31:55.479Z,69.10
2022-08-14T19:34:40.422Z,68.60
2022-08-14T19:37:36.661Z,68.40
2022-08-14T19:40:15.383Z,68.10
2022-08-14T19:42:47.302Z,68.70
2022-08-14T19:45:15.789Z,68.60
2022-08-14T19:47:43.075Z,69.00
2022-08-14T19:50:31.160Z,69.60
2022-08-14T19:53:10.798Z,69.30
2022-08-14T19:55:45.545Z,68.80
2022-08-14T19:58:13.308Z,68.60
2022-08-14T20:00:52.412Z,68.70
2022-08-14T20:03:24.016Z,68.60
2022-08-14T20:06:01.317Z,68.40
2022-08-14T20:09:05.308Z,68.50
2022-08-14T20:12:01.478Z,68.40
2022-08-14T20:14:31.265Z,68.40
2022-08-14T20:17:06.401Z,68.30
2022-08-14T20:19:37.749Z,68.30
2022-08-14T20:22:35.306Z,68.40
2022-08-14T20:24:56.533Z,68.80
2022-08-14T20:27:33.928Z,68.80
2022-08-14T20:32:59.531Z,68.60
2022-08-14T20:35:35.432Z,68.80
2022-08-14T20:38:29.016Z,68.90
2022-08-14T20:40:56.175Z,69.20
2022-08-14T20:43:52.778Z,68.90
2022-08-14T20:46:23.521Z,68.40
2022-08-14T20:49:08.509Z,68.40
2022-08-14T20:51:47.716Z,68.30
2022-08-14T20:54:34.271Z,68.30
2022-08-14T20:57:14.647Z,68.60
2022-08-14T20:59:53.271Z,69.00
2022-08-14T21:02:34.390Z,69.10
2022-08-14T21:05:16.610Z,69.10
2022-08-14T21:07:50.920Z,69.20
2022-08-14T21:10:33.619Z,69.20
2022-08-14T21:13:27.734Z,69.20
2022-08-14T21:15:57.782Z,69.20
2022-08-14T21:18:30.509Z,69.20
2022-08-14T21:20:59.928Z,69.40
2022-08-14T21:23:32.756Z,69.20
2022-08-14T21:25:59.982Z,69.20
2022-08-14T21:28:30.403Z,68.90
2022-08-14T21:31:01.829Z,69.30
2022-08-14T21:33:29.038Z,69.40
2022-08-14T21:35:56.923Z,69.40
2022-08-14T21:38:33.649Z,69.60
2022-08-14T21:41:02.564Z,69.50
2022-08-14T21:43:52.413Z,69.50
2022-08-14T21:46:19.840Z,70.20
2022-08-14T21:48:46.680Z,69.40
2022-08-14T21:51:53.552Z,69.40
2022-08-14T21:54:01.304Z,69.40
2022-08-14T21:56:38.348Z,69.60
2022-08-14T21:59:17.949Z,69.40
2022-08-14T22:02:01.218Z,69.30
2022-08-14T22:04:35.202Z,69.30
2022-08-14T22:07:09.347Z,69.50
2022-08-14T22:09:36.976Z,69.60
2022-08-14T22:12:06.968Z,69.70
2022-08-14T22:14:43.626Z,69.80
2022-08-14T22:17:16.459Z,69.70
2022-08-14T22:19:54.543Z,69.90
2022-08-14T22:22:23.966Z,69.80
2022-08-14T22:24:59.759Z,69.70
2022-08-14T22:27:29.481Z,69.80
2022-08-14T22:29:58.539Z,69.80
2022-08-14T22:32:34.998Z,69.60
2022-08-14T22:35:12.783Z,69.60
2022-08-14T22:37:44.707Z,69.60
2022-08-14T22:40:51.646Z,69.80
2022-08-14T22:43:08.474Z,69.80
2022-08-14T22:45:37.960Z,70.70
2022-08-14T22:48:10.923Z,69.90
2022-08-14T22:50:49.244Z,69.90
2022-08-14T22:53:21.784Z,70.00
2022-08-14T22:55:52.088Z,69.90
2022-08-14T22:58:19.473Z,69.90
2022-08-14T23:01:00.156Z,70.00
2022-08-14T23:03:27.054Z,70.00
2022-08-14T23:05:55.602Z,70.00
2022-08-14T23:08:57.985Z,69.90
2022-08-14T23:11:10.477Z,69.90
2022-08-14T23:13:43.518Z,69.90
2022-08-14T23:16:19.645Z,70.10
2022-08-14T23:18:53.758Z,70.20
2022-08-14T23:21:24.570Z,70.30
2022-08-14T23:23:54.914Z,70.30
2022-08-14T23:26:49.807Z,70.90
2022-08-14T23:29:13.017Z,70.90
2022-08-14T23:31:42.965Z,71.20
2022-08-14T23:34:14.381Z,71.70
2022-08-14T23:36:52.923Z,71.70
2022-08-14T23:39:24.477Z,71.90
2022-08-14T23:41:56.282Z,72.40
2022-08-14T23:44:23.533Z,72.40
2022-08-14T23:46:52.561Z,72.80
2022-08-14T23:49:24.806Z,72.30
2022-08-14T23:52:49.563Z,71.80
2022-08-14T23:54:48.257Z,71.70
2022-08-14T23:57:16.431Z,71.80
2022-08-14T23:59:54.666Z,71.80
